sensor_id;sensor_type;location;lat;lon;timestamp;temperature;humidity
21318;DHT22;10818;50.830;6.524;2024-01-11T00:02:37;-4.40;99.90
21318;DHT22;10818;50.830;6.524;2024-01-11T00:07:38;-4.30;99.90
21318;DHT22;10818;50.830;6.524;2024-01-11T00:12:38;-4.30;99.90
21318;DHT22;10818;50.830;6.524;2024-01-11T00:17:39;-4.70;99.90
21318;DHT22;10818;50.830;6.524;2024-01-11T00:22:39;-4.90;99.90
21318;DHT22;10818;50.830;6.524;2024-01-11T00:27:40;-4.80;99.90
21318;DHT22;10818;50.830;6.524;2024-01-11T00:32:40;-4.90;99.90
21318;DHT22;10818;50.830;6.524;2024-01-11T00:37:40;-4.90;99.90
21318;DHT22;10818;50.830;6.524;2024-01-11T00:42:41;-5.10;99.90
21318;DHT22;10818;50.830;6.524;2024-01-11T00:47:41;-5.00;99.90
21318;DHT22;10818;50.830;6.524;2024-01-11T00:52:42;-5.00;99.90
21318;DHT22;10818;50.830;6.524;2024-01-11T00:57:42;-5.00;99.90
21318;DHT22;10818;50.830;6.524;2024-01-11T01:02:43;-5.00;99.90
21318;DHT22;10818;50.830;6.524;2024-01-11T01:07:43;-5.10;99.90
21318;DHT22;10818;50.830;6.524;2024-01-11T01:12:46;-5.20;99.90
21318;DHT22;10818;50.830;6.524;2024-01-11T01:17:46;-5.20;99.90
21318;DHT22;10818;50.830;6.524;2024-01-11T01:22:47;-5.30;99.90
21318;DHT22;10818;50.830;6.524;2024-01-11T01:27:47;-5.30;99.90
21318;DHT22;10818;50.830;6.524;2024-01-11T01:32:48;-5.10;99.90
21318;DHT22;10818;50.830;6.524;2024-01-11T01:37:49;-5.20;99.90
21318;DHT22;10818;50.830;6.524;2024-01-11T01:42:49;-5.40;99.90
21318;DHT22;10818;50.830;6.524;2024-01-11T01:47:50;-5.40;99.90
21318;DHT22;10818;50.830;6.524;2024-01-11T01:52:50;-5.50;99.90
21318;DHT22;10818;50.830;6.524;2024-01-11T01:57:51;-5.40;99.90
21318;DHT22;10818;50.830;6.524;2024-01-11T02:02:52;-5.40;99.90
21318;DHT22;10818;50.830;6.524;2024-01-11T02:07:55;-5.30;99.90
21318;DHT22;10818;50.830;6.524;2024-01-11T02:12:56;-5.60;99.90
21318;DHT22;10818;50.830;6.524;2024-01-11T02:17:56;-5.60;99.90
21318;DHT22;10818;50.830;6.524;2024-01-11T02:22:58;-5.50;99.90
21318;DHT22;10818;50.830;6.524;2024-01-11T02:28:00;-5.70;99.90
21318;DHT22;10818;50.830;6.524;2024-01-11T02:33:01;-5.60;99.90
21318;DHT22;10818;50.830;6.524;2024-01-11T02:38:01;-5.60;99.90
21318;DHT22;10818;50.830;6.524;2024-01-11T02:43:08;-5.40;99.90
21318;DHT22;10818;50.830;6.524;2024-01-11T02:48:09;-5.70;99.90
21318;DHT22;10818;50.830;6.524;2024-01-11T02:53:09;-5.90;99.90
21318;DHT22;10818;50.830;6.524;2024-01-11T02:58:10;-5.90;99.90
21318;DHT22;10818;50.830;6.524;2024-01-11T03:03:10;-5.60;99.90
21318;DHT22;10818;50.830;6.524;2024-01-11T03:08:11;-5.40;99.90
21318;DHT22;10818;50.830;6.524;2024-01-11T03:13:12;-5.50;99.90
21318;DHT22;10818;50.830;6.524;2024-01-11T03:18:13;-5.80;99.90
21318;DHT22;10818;50.830;6.524;2024-01-11T03:23:13;-6.00;99.90
21318;DHT22;10818;50.830;6.524;2024-01-11T03:28:14;-6.00;99.90
21318;DHT22;10818;50.830;6.524;2024-01-11T03:33:14;-5.90;99.90
21318;DHT22;10818;50.830;6.524;2024-01-11T03:38:15;-6.00;99.90
21318;DHT22;10818;50.830;6.524;2024-01-11T03:43:18;-6.00;99.90
21318;DHT22;10818;50.830;6.524;2024-01-11T03:48:19;-5.80;99.90
21318;DHT22;10818;50.830;6.524;2024-01-11T03:53:19;-5.90;99.90
21318;DHT22;10818;50.830;6.524;2024-01-11T03:58:20;-5.80;99.90
21318;DHT22;10818;50.830;6.524;2024-01-11T04:03:20;-5.70;99.90
21318;DHT22;10818;50.830;6.524;2024-01-11T04:08:21;-5.70;99.90
21318;DHT22;10818;50.830;6.524;2024-01-11T04:13:21;-5.70;99.90
21318;DHT22;10818;50.830;6.524;2024-01-11T04:18:22;-5.80;99.90
21318;DHT22;10818;50.830;6.524;2024-01-11T04:23:22;-5.80;99.90
21318;DHT22;10818;50.830;6.524;2024-01-11T04:28:23;-5.60;99.90
21318;DHT22;10818;50.830;6.524;2024-01-11T04:33:23;-5.80;99.90
21318;DHT22;10818;50.830;6.524;2024-01-11T04:38:24;-5.90;99.90
21318;DHT22;10818;50.830;6.524;2024-01-11T04:43:26;-5.70;99.90
21318;DHT22;10818;50.830;6.524;2024-01-11T04:48:26;-5.50;99.90
21318;DHT22;10818;50.830;6.524;2024-01-11T04:53:27;-5.40;99.90
21318;DHT22;10818;50.830;6.524;2024-01-11T04:58:27;-5.20;99.90
21318;DHT22;10818;50.830;6.524;2024-01-11T05:03:28;-5.00;99.90
21318;DHT22;10818;50.830;6.524;2024-01-11T05:08:29;-4.90;99.90
21318;DHT22;10818;50.830;6.524;2024-01-11T05:13:29;-4.90;99.90
21318;DHT22;10818;50.830;6.524;2024-01-11T05:18:30;-5.10;99.90
21318;DHT22;10818;50.830;6.524;2024-01-11T05:23:30;-5.20;99.90
21318;DHT22;10818;50.830;6.524;2024-01-11T05:28:31;-5.20;99.90
21318;DHT22;10818;50.830;6.524;2024-01-11T05:33:31;-4.90;99.90
21318;DHT22;10818;50.830;6.524;2024-01-11T05:38:32;-4.80;99.90
21318;DHT22;10818;50.830;6.524;2024-01-11T05:43:32;-4.70;99.90
21318;DHT22;10818;50.830;6.524;2024-01-11T05:48:33;-4.70;99.90
21318;DHT22;10818;50.830;6.524;2024-01-11T05:53:33;-5.10;99.90
21318;DHT22;10818;50.830;6.524;2024-01-11T05:58:36;-4.90;99.90
21318;DHT22;10818;50.830;6.524;2024-01-11T06:03:39;-5.20;99.90
21318;DHT22;10818;50.830;6.524;2024-01-11T06:08:40;-5.30;99.90
21318;DHT22;10818;50.830;6.524;2024-01-11T06:13:42;-5.20;99.90
21318;DHT22;10818;50.830;6.524;2024-01-11T06:18:43;-5.10;99.90
21318;DHT22;10818;50.830;6.524;2024-01-11T06:23:43;-5.60;99.90
21318;DHT22;10818;50.830;6.524;2024-01-11T06:28:44;-5.40;99.90
21318;DHT22;10818;50.830;6.524;2024-01-11T06:33:44;-5.70;99.90
21318;DHT22;10818;50.830;6.524;2024-01-11T06:38:45;-5.90;99.90
21318;DHT22;10818;50.830;6.524;2024-01-11T06:43:45;-5.90;99.90
21318;DHT22;10818;50.830;6.524;2024-01-11T06:48:46;-6.00;99.90
21318;DHT22;10818;50.830;6.524;2024-01-11T06:53:47;-6.10;99.90
21318;DHT22;10818;50.830;6.524;2024-01-11T06:58:47;-6.20;99.90
21318;DHT22;10818;50.830;6.524;2024-01-11T07:03:48;-6.00;99.90
21318;DHT22;10818;50.830;6.524;2024-01-11T07:08:49;-6.10;99.90
21318;DHT22;10818;50.830;6.524;2024-01-11T07:13:50;-6.10;99.90
21318;DHT22;10818;50.830;6.524;2024-01-11T07:18:50;-6.10;99.90
21318;DHT22;10818;50.830;6.524;2024-01-11T07:23:51;-6.10;99.90
21318;DHT22;10818;50.830;6.524;2024-01-11T07:28:51;-6.10;99.90
21318;DHT22;10818;50.830;6.524;2024-01-11T07:33:54;-6.20;99.90
21318;DHT22;10818;50.830;6.524;2024-01-11T07:38:55;-5.90;99.90
21318;DHT22;10818;50.830;6.524;2024-01-11T07:43:56;-5.90;99.90
21318;DHT22;10818;50.830;6.524;2024-01-11T07:48:58;-5.80;99.90
21318;DHT22;10818;50.830;6.524;2024-01-11T07:53:59;-5.80;99.90
21318;DHT22;10818;50.830;6.524;2024-01-11T07:58:59;-5.80;99.90
21318;DHT22;10818;50.830;6.524;2024-01-11T08:04:00;-5.70;99.90
21318;DHT22;10818;50.830;6.524;2024-01-11T08:09:02;-5.80;99.90
21318;DHT22;10818;50.830;6.524;2024-01-11T08:14:04;-5.60;99.90
21318;DHT22;10818;50.830;6.524;2024-01-11T08:19:05;-5.30;99.90
21318;DHT22;10818;50.830;6.524;2024-01-11T08:24:06;-5.20;99.90
21318;DHT22;10818;50.830;6.524;2024-01-11T08:29:06;-4.90;99.90
21318;DHT22;10818;50.830;6.524;2024-01-11T08:34:08;-4.80;99.90
21318;DHT22;10818;50.830;6.524;2024-01-11T08:39:08;-4.50;99.90
21318;DHT22;10818;50.830;6.524;2024-01-11T08:44:11;-0.60;99.90
21318;DHT22;10818;50.830;6.524;2024-01-11T08:49:12;4.30;99.90
21318;DHT22;10818;50.830;6.524;2024-01-11T08:54:12;7.70;99.90
21318;DHT22;10818;50.830;6.524;2024-01-11T08:59:13;10.00;99.90
21318;DHT22;10818;50.830;6.524;2024-01-11T09:04:13;10.90;99.90
21318;DHT22;10818;50.830;6.524;2024-01-11T09:09:14;12.60;99.90
21318;DHT22;10818;50.830;6.524;2024-01-11T09:14:15;13.10;99.90
21318;DHT22;10818;50.830;6.524;2024-01-11T09:19:16;13.40;99.90
21318;DHT22;10818;50.830;6.524;2024-01-11T09:24:16;13.60;99.00
21318;DHT22;10818;50.830;6.524;2024-01-11T09:29:17;13.70;97.60
21318;DHT22;10818;50.830;6.524;2024-01-11T09:34:17;13.30;97.70
21318;DHT22;10818;50.830;6.524;2024-01-11T09:39:18;13.60;97.00
21318;DHT22;10818;50.830;6.524;2024-01-11T09:44:18;13.70;96.30
21318;DHT22;10818;50.830;6.524;2024-01-11T09:49:19;10.60;97.10
21318;DHT22;10818;50.830;6.524;2024-01-11T09:54:22;5.60;99.90
21318;DHT22;10818;50.830;6.524;2024-01-11T09:59:23;2.70;99.90
21318;DHT22;10818;50.830;6.524;2024-01-11T10:04:24;1.60;99.90
21318;DHT22;10818;50.830;6.524;2024-01-11T10:09:25;0.60;99.90
21318;DHT22;10818;50.830;6.524;2024-01-11T10:14:26;0.40;99.90
21318;DHT22;10818;50.830;6.524;2024-01-11T10:19:27;0.20;99.90
21318;DHT22;10818;50.830;6.524;2024-01-11T10:24:27;0.40;99.90
21318;DHT22;10818;50.830;6.524;2024-01-11T10:29:32;0.10;99.90
21318;DHT22;10818;50.830;6.524;2024-01-11T10:34:33;0.10;99.90
21318;DHT22;10818;50.830;6.524;2024-01-11T10:39:33;0.10;99.90
21318;DHT22;10818;50.830;6.524;2024-01-11T10:44:35;0.30;99.90
21318;DHT22;10818;50.830;6.524;2024-01-11T10:49:39;0.20;99.90
21318;DHT22;10818;50.830;6.524;2024-01-11T10:54:39;0.30;99.90
21318;DHT22;10818;50.830;6.524;2024-01-11T10:59:41;0.30;99.90
21318;DHT22;10818;50.830;6.524;2024-01-11T11:04:43;0.70;99.90
21318;DHT22;10818;50.830;6.524;2024-01-11T11:09:44;0.50;99.90
21318;DHT22;10818;50.830;6.524;2024-01-11T11:14:46;0.50;99.90
21318;DHT22;10818;50.830;6.524;2024-01-11T11:19:47;0.70;99.90
21318;DHT22;10818;50.830;6.524;2024-01-11T11:24:48;0.90;99.90
21318;DHT22;10818;50.830;6.524;2024-01-11T11:29:48;0.60;99.90
21318;DHT22;10818;50.830;6.524;2024-01-11T11:34:49;0.60;99.90
21318;DHT22;10818;50.830;6.524;2024-01-11T11:39:52;0.70;99.90
21318;DHT22;10818;50.830;6.524;2024-01-11T11:44:53;0.90;99.90
21318;DHT22;10818;50.830;6.524;2024-01-11T11:49:57;0.90;99.90
21318;DHT22;10818;50.830;6.524;2024-01-11T11:54:59;0.90;99.90
21318;DHT22;10818;50.830;6.524;2024-01-11T11:59:59;0.90;99.90
21318;DHT22;10818;50.830;6.524;2024-01-11T12:05:02;1.20;99.90
21318;DHT22;10818;50.830;6.524;2024-01-11T12:10:04;1.30;99.90
21318;DHT22;10818;50.830;6.524;2024-01-11T12:15:05;1.40;99.90
21318;DHT22;10818;50.830;6.524;2024-01-11T12:20:06;1.50;99.90
21318;DHT22;10818;50.830;6.524;2024-01-11T12:25:06;1.60;99.90
21318;DHT22;10818;50.830;6.524;2024-01-11T12:30:07;1.70;99.90
21318;DHT22;10818;50.830;6.524;2024-01-11T12:35:10;1.60;99.90
21318;DHT22;10818;50.830;6.524;2024-01-11T12:40:12;1.30;99.90
21318;DHT22;10818;50.830;6.524;2024-01-11T12:45:12;1.80;99.90
21318;DHT22;10818;50.830;6.524;2024-01-11T12:50:13;1.80;99.90
21318;DHT22;10818;50.830;6.524;2024-01-11T12:55:20;1.70;99.90
21318;DHT22;10818;50.830;6.524;2024-01-11T13:00:20;1.60;99.90
21318;DHT22;10818;50.830;6.524;2024-01-11T13:05:21;2.00;99.90
21318;DHT22;10818;50.830;6.524;2024-01-11T13:10:21;2.00;99.90
21318;DHT22;10818;50.830;6.524;2024-01-11T13:15:28;2.10;99.90
21318;DHT22;10818;50.830;6.524;2024-01-11T13:20:32;2.20;99.90
21318;DHT22;10818;50.830;6.524;2024-01-11T13:25:32;2.30;99.90
21318;DHT22;10818;50.830;6.524;2024-01-11T13:30:33;2.10;99.90
21318;DHT22;10818;50.830;6.524;2024-01-11T13:35:37;2.10;99.90
21318;DHT22;10818;50.830;6.524;2024-01-11T13:40:37;2.10;99.90
21318;DHT22;10818;50.830;6.524;2024-01-11T13:45:40;2.10;99.90
21318;DHT22;10818;50.830;6.524;2024-01-11T13:50:40;1.90;99.90
21318;DHT22;10818;50.830;6.524;2024-01-11T13:55:41;1.80;99.90
21318;DHT22;10818;50.830;6.524;2024-01-11T14:00:41;1.80;99.90
21318;DHT22;10818;50.830;6.524;2024-01-11T14:05:42;2.00;99.90
21318;DHT22;10818;50.830;6.524;2024-01-11T14:10:42;1.70;99.90
21318;DHT22;10818;50.830;6.524;2024-01-11T14:15:43;1.50;99.90
21318;DHT22;10818;50.830;6.524;2024-01-11T14:20:43;1.70;99.90
21318;DHT22;10818;50.830;6.524;2024-01-11T14:25:44;1.50;99.90
21318;DHT22;10818;50.830;6.524;2024-01-11T14:30:44;1.60;99.90
21318;DHT22;10818;50.830;6.524;2024-01-11T14:35:45;1.70;99.90
21318;DHT22;10818;50.830;6.524;2024-01-11T14:40:45;1.60;99.90
21318;DHT22;10818;50.830;6.524;2024-01-11T14:45:46;1.40;99.90
21318;DHT22;10818;50.830;6.524;2024-01-11T14:50:46;1.30;99.90
21318;DHT22;10818;50.830;6.524;2024-01-11T14:55:47;1.30;99.90
21318;DHT22;10818;50.830;6.524;2024-01-11T15:00:47;1.20;99.90
21318;DHT22;10818;50.830;6.524;2024-01-11T15:05:48;1.20;99.90
21318;DHT22;10818;50.830;6.524;2024-01-11T15:10:48;1.20;99.90
21318;DHT22;10818;50.830;6.524;2024-01-11T15:15:49;1.20;99.90
21318;DHT22;10818;50.830;6.524;2024-01-11T15:21:14;1.20;99.90
21318;DHT22;10818;50.830;6.524;2024-01-11T15:26:14;1.00;99.90
21318;DHT22;10818;50.830;6.524;2024-01-11T15:31:14;0.90;99.90
21318;DHT22;10818;50.830;6.524;2024-01-11T15:36:15;0.70;99.90
21318;DHT22;10818;50.830;6.524;2024-01-11T15:41:16;0.70;99.90
21318;DHT22;10818;50.830;6.524;2024-01-11T15:46:16;0.70;99.90
21318;DHT22;10818;50.830;6.524;2024-01-11T15:51:17;0.60;99.90
21318;DHT22;10818;50.830;6.524;2024-01-11T15:56:17;0.50;99.90
21318;DHT22;10818;50.830;6.524;2024-01-11T16:01:18;0.50;99.90
21318;DHT22;10818;50.830;6.524;2024-01-11T16:06:18;0.30;99.90
21318;DHT22;10818;50.830;6.524;2024-01-11T16:11:19;0.20;99.90
21318;DHT22;10818;50.830;6.524;2024-01-11T16:16:20;-0.10;99.90
21318;DHT22;10818;50.830;6.524;2024-01-11T16:21:20;-0.20;99.90
21318;DHT22;10818;50.830;6.524;2024-01-11T16:26:21;-0.40;99.90
21318;DHT22;10818;50.830;6.524;2024-01-11T16:31:21;-0.50;99.90
21318;DHT22;10818;50.830;6.524;2024-01-11T16:36:23;-0.40;99.90
21318;DHT22;10818;50.830;6.524;2024-01-11T16:41:23;-0.30;99.90
21318;DHT22;10818;50.830;6.524;2024-01-11T16:46:24;-0.40;99.90
21318;DHT22;10818;50.830;6.524;2024-01-11T16:51:25;-0.30;99.90
21318;DHT22;10818;50.830;6.524;2024-01-11T16:56:25;-0.30;99.90
21318;DHT22;10818;50.830;6.524;2024-01-11T17:01:26;-0.60;99.90
21318;DHT22;10818;50.830;6.524;2024-01-11T17:06:27;-0.60;99.90
21318;DHT22;10818;50.830;6.524;2024-01-11T17:11:28;-0.50;99.90
21318;DHT22;10818;50.830;6.524;2024-01-11T17:16:29;-0.60;99.90
21318;DHT22;10818;50.830;6.524;2024-01-11T17:21:30;-0.60;99.90
21318;DHT22;10818;50.830;6.524;2024-01-11T17:26:31;-0.70;99.90
21318;DHT22;10818;50.830;6.524;2024-01-11T17:31:34;-0.50;99.90
21318;DHT22;10818;50.830;6.524;2024-01-11T17:36:37;-0.70;99.90
21318;DHT22;10818;50.830;6.524;2024-01-11T17:41:38;-0.60;99.90
21318;DHT22;10818;50.830;6.524;2024-01-11T17:46:40;-0.90;99.90
21318;DHT22;10818;50.830;6.524;2024-01-11T17:51:42;-1.20;99.90
21318;DHT22;10818;50.830;6.524;2024-01-11T17:56:43;-1.20;99.90
21318;DHT22;10818;50.830;6.524;2024-01-11T18:01:43;-1.40;99.90
21318;DHT22;10818;50.830;6.524;2024-01-11T18:06:44;-1.50;99.90
21318;DHT22;10818;50.830;6.524;2024-01-11T18:11:45;-1.60;99.90
21318;DHT22;10818;50.830;6.524;2024-01-11T18:16:45;-1.70;99.90
21318;DHT22;10818;50.830;6.524;2024-01-11T18:21:46;-2.00;99.90
21318;DHT22;10818;50.830;6.524;2024-01-11T18:26:46;-2.20;99.90
21318;DHT22;10818;50.830;6.524;2024-01-11T18:31:47;-2.00;99.90
21318;DHT22;10818;50.830;6.524;2024-01-11T18:36:47;-2.30;99.90
21318;DHT22;10818;50.830;6.524;2024-01-11T18:41:48;-2.00;99.90
21318;DHT22;10818;50.830;6.524;2024-01-11T18:46:49;-2.30;99.90
21318;DHT22;10818;50.830;6.524;2024-01-11T18:51:49;-2.40;99.90
21318;DHT22;10818;50.830;6.524;2024-01-11T18:56:50;-2.10;99.90
21318;DHT22;10818;50.830;6.524;2024-01-11T19:01:50;-2.20;99.90
21318;DHT22;10818;50.830;6.524;2024-01-11T19:06:51;-2.10;99.90
21318;DHT22;10818;50.830;6.524;2024-01-11T19:11:51;-1.60;99.90
21318;DHT22;10818;50.830;6.524;2024-01-11T19:16:53;-1.30;99.90
21318;DHT22;10818;50.830;6.524;2024-01-11T19:21:54;-1.00;99.90
21318;DHT22;10818;50.830;6.524;2024-01-11T19:26:54;-0.70;99.90
21318;DHT22;10818;50.830;6.524;2024-01-11T19:31:55;-0.60;99.90
21318;DHT22;10818;50.830;6.524;2024-01-11T19:36:56;-0.50;99.90
21318;DHT22;10818;50.830;6.524;2024-01-11T19:41:56;-0.40;99.90
21318;DHT22;10818;50.830;6.524;2024-01-11T19:46:57;-0.30;99.90
21318;DHT22;10818;50.830;6.524;2024-01-11T19:51:57;-0.10;99.90
21318;DHT22;10818;50.830;6.524;2024-01-11T19:56:58;0.00;99.90
21318;DHT22;10818;50.830;6.524;2024-01-11T20:01:58;0.10;99.90
21318;DHT22;10818;50.830;6.524;2024-01-11T20:06:59;0.30;99.90
21318;DHT22;10818;50.830;6.524;2024-01-11T20:11:59;0.10;99.90
21318;DHT22;10818;50.830;6.524;2024-01-11T20:16:59;0.50;99.90
21318;DHT22;10818;50.830;6.524;2024-01-11T20:22:00;0.70;99.90
21318;DHT22;10818;50.830;6.524;2024-01-11T20:27:01;0.30;99.90
21318;DHT22;10818;50.830;6.524;2024-01-11T20:32:03;0.40;99.90
21318;DHT22;10818;50.830;6.524;2024-01-11T20:37:04;0.70;99.90
21318;DHT22;10818;50.830;6.524;2024-01-11T20:42:04;0.70;99.90
21318;DHT22;10818;50.830;6.524;2024-01-11T20:47:05;0.80;99.90
21318;DHT22;10818;50.830;6.524;2024-01-11T20:52:06;1.10;99.90
21318;DHT22;10818;50.830;6.524;2024-01-11T20:57:06;0.70;99.90
21318;DHT22;10818;50.830;6.524;2024-01-11T21:02:07;0.60;99.90
21318;DHT22;10818;50.830;6.524;2024-01-11T21:07:07;0.50;99.90
21318;DHT22;10818;50.830;6.524;2024-01-11T21:12:08;0.90;99.90
21318;DHT22;10818;50.830;6.524;2024-01-11T21:17:08;0.70;99.90
21318;DHT22;10818;50.830;6.524;2024-01-11T21:22:08;0.50;99.90
21318;DHT22;10818;50.830;6.524;2024-01-11T21:27:09;0.60;99.90
21318;DHT22;10818;50.830;6.524;2024-01-11T21:32:09;0.60;99.90
21318;DHT22;10818;50.830;6.524;2024-01-11T21:37:10;0.70;99.90
21318;DHT22;10818;50.830;6.524;2024-01-11T21:42:10;0.60;99.90
21318;DHT22;10818;50.830;6.524;2024-01-11T21:47:11;0.70;99.90
21318;DHT22;10818;50.830;6.524;2024-01-11T21:52:13;0.60;99.90
21318;DHT22;10818;50.830;6.524;2024-01-11T21:57:13;0.70;99.90
21318;DHT22;10818;50.830;6.524;2024-01-11T22:02:14;0.60;99.90
21318;DHT22;10818;50.830;6.524;2024-01-11T22:07:14;0.70;99.90
21318;DHT22;10818;50.830;6.524;2024-01-11T22:12:15;0.80;99.90
21318;DHT22;10818;50.830;6.524;2024-01-11T22:17:15;0.80;99.90
21318;DHT22;10818;50.830;6.524;2024-01-11T22:22:16;0.80;99.90
21318;DHT22;10818;50.830;6.524;2024-01-11T22:27:16;0.80;99.90
21318;DHT22;10818;50.830;6.524;2024-01-11T22:32:17;0.80;99.90
21318;DHT22;10818;50.830;6.524;2024-01-11T22:37:17;1.00;99.90
21318;DHT22;10818;50.830;6.524;2024-01-11T22:42:18;0.80;99.90
21318;DHT22;10818;50.830;6.524;2024-01-11T22:47:19;0.90;99.90
21318;DHT22;10818;50.830;6.524;2024-01-11T22:52:19;0.90;99.90
21318;DHT22;10818;50.830;6.524;2024-01-11T22:57:20;0.90;99.90
21318;DHT22;10818;50.830;6.524;2024-01-11T23:02:20;1.00;99.90
21318;DHT22;10818;50.830;6.524;2024-01-11T23:07:21;0.90;99.90
21318;DHT22;10818;50.830;6.524;2024-01-11T23:12:21;0.80;99.90
21318;DHT22;10818;50.830;6.524;2024-01-11T23:17:22;0.90;99.90
21318;DHT22;10818;50.830;6.524;2024-01-11T23:22:22;1.00;99.90
21318;DHT22;10818;50.830;6.524;2024-01-11T23:27:23;1.30;99.90
21318;DHT22;10818;50.830;6.524;2024-01-11T23:32:23;1.20;99.90
21318;DHT22;10818;50.830;6.524;2024-01-11T23:37:24;1.50;99.90
21318;DHT22;10818;50.830;6.524;2024-01-11T23:42:24;1.50;99.90
21318;DHT22;10818;50.830;6.524;2024-01-11T23:47:25;1.60;99.90
21318;DHT22;10818;50.830;6.524;2024-01-11T23:52:25;1.80;99.90
21318;DHT22;10818;50.830;6.524;2024-01-11T23:57:25;1.40;99.90
